Terminal Aerodrome Forecast
Issued by NWS Tulsa, OK

Home | Current Version | Previous Version | Text Only | Print | Product List | Glossary On
Versions: 1 2 3 4 5 6 7 8 9 10 11 12
000
FTUS44 KTSA 021725
TAFTUL
TAF
KTUL 021725Z 0218/0318 29006KT P6SM FEW040 BKN160 BKN250
     FM022200 03006KT P6SM VCTS BKN060CB
      TEMPO 0222/0302 3SM -TSRA BKN025CB
     FM030200 03004KT P6SM VCTS BKN035CB
      TEMPO 0302/0306 3SM -TSRA BKN025CB
     FM030600 05005KT P6SM BKN035 PROB30 0306/0312 3SM -TSRA
      BKN025CB
     FM031200 VRB03KT P6SM BKN025=

USA.gov is the U.S. government's official web portal to all federal, state and local government web resources and services.